Terminal Aerodrome Forecast
Issued by NWS

Home | Current Version | Previous Version | Text Only | Print | Product List | Glossary On
Versions: 1 2 3 4 5 6 7 8 9 10 11 12 13 14 15 16 17 18 19 20 21 22 23 24 25
000
FTUS43 KOAX 292321
TAFBFF
TAF
KBFF 292321Z 3000/3024 07013KT P6SM OVC025
      TEMPO 3000/3003 3SM -RA BR OVC010
     FM300600 35009KT 1SM -SNRA BR OVC009
     FM301500 34015KT 4SM -SNRA BR OVC015
     FM302000 35015G25KT 5SM -RA OVC025=

USA.gov is the U.S. government's official web portal to all federal, state and local government web resources and services.